Accueil
METAR-TAF:

METAR-TAF

Aéroports :

Gioia del Colle, Italie

latitude: 40-46N, longitude: 016-56E, altitude: 345 m

Observation

Le bulletin a été fait il y a 51 minutes, à 05:55 UTC
Vent 2 kt de ouest
Température 7°C
Humidité 93%
Pression 1019 hPa
Visibilité 10 km ou plus
pas de nuages en-dessous de 1500 mètres et pas de cumulonimbus.

METAR: LIBV 190555Z 28002KT CAVOK 07/06 Q1019 RMK FEW FEW200 VIS MIN 9999 WIND THR32 32005KT WIND THR14 VRB01KT BLU

Heure: 07:46 (06:46 UTC)

Prévision

Le bulletin a été fait il y a 1 heure et 46 minutes, à 05:00 UTC
Prévision valable du 19 à 06 UTC au 19 à 15 UTC
Vent 5 kt de nord/nord-ouest
Visibilité 10 km ou plus
Quelques nuages à une hauteur de 3000 ft
Evoluant progressivement
du 19 à 09 UTC au 19 à 11 UTC
Vent 10 kt de nord/nord-ouest

TAF: LIBV 190500Z 1906/1915 34005KT 9999 FEW030 BECMG 1909/1911 34010KT

Observations et prévisions météorologiques de plus de 4000 aéroports (messages METAR et TAF).

Les stations disponibles sont représentées par des disques jaunes et rouges sur la carte.

Passer la souris dessus pour voir le nom de la station.

Cliquer dessus pour voir les observations et prévisions météorologiques.

Pour changer de carte: cliquez sur les boutons verts avec une croix noire pour zoomer, sur le bouton vert avec un tiret pour effectuer un zoom arrière, ou sur les flèches vertes pour les cartes adjacentes.


METAR-TAF: